Time;durP1;ratioP1;P1;durP2;ratioP2;P2;SDS_P1;SDS_P2;PMS_P1;PMS_P2;Temp;Humidity;BMP_temperature;BMP_pressure;BME280_temperature;BME280_humidity;BME280_pressure;Samples;Min_cycle;Max_cycle;Signal;HPM_P1;HPM_P2
2023/12/22 00:00:37;;;;;;;;;;;8.30;99.90;;;;;;5069212;28;19924;-79
2023/12/22 00:03:04;;;;;;;;;;;8.30;99.90;;;;;;5068274;28;20006;-79
2023/12/22 00:05:30;;;;;;;;;;;8.30;99.90;;;;;;5071311;28;19929;-78
2023/12/22 00:07:58;;;;;;;;;;;8.30;99.90;;;;;;5067679;28;19920;-78
2023/12/22 00:10:25;;;;;;;;;;;8.30;99.90;;;;;;5073339;28;19928;-78
2023/12/22 00:12:51;;;;;;;;;;;8.30;99.90;;;;;;5068354;28;19932;-79
2023/12/22 00:15:18;;;;;;;;;;;8.30;99.90;;;;;;5064141;28;19924;-78
2023/12/22 00:17:44;;;;;;;;;;;8.30;99.90;;;;;;5068864;28;20396;-79
2023/12/22 00:20:13;;;;;;;;;;;8.30;99.90;;;;;;5068736;28;19935;-79
2023/12/22 00:22:39;;;;;;;;;;;8.30;99.90;;;;;;5068276;28;19924;-79
2023/12/22 00:25:09;;;;;;;;;;;8.30;99.90;;;;;;5071032;28;19924;-79
2023/12/22 00:27:36;;;;;;;;;;;8.30;99.90;;;;;;5072380;28;19950;-78
2023/12/22 00:30:02;;;;;;;;;;;8.30;99.90;;;;;;5067717;28;19924;-79
2023/12/22 00:32:29;;;;;;;;;;;8.30;99.90;;;;;;5075055;28;19931;-79
2023/12/22 00:34:56;;;;;;;;;;;8.20;99.90;;;;;;5069911;28;19924;-79
2023/12/22 00:37:23;;;;;;;;;;;8.20;99.90;;;;;;5069609;28;19989;-79
2023/12/22 00:39:49;;;;;;;;;;;8.20;99.90;;;;;;5065766;28;19924;-79
2023/12/22 00:42:17;;;;;;;;;;;8.20;99.90;;;;;;5068321;28;19924;-79
2023/12/22 00:44:44;;;;;;;;;;;8.20;99.90;;;;;;5067958;28;20348;-79
2023/12/22 00:47:10;;;;;;;;;;;8.20;99.90;;;;;;5065423;28;19928;-79
2023/12/22 00:49:37;;;;;;;;;;;8.20;99.90;;;;;;5069145;28;19928;-78
2023/12/22 00:52:03;;;;;;;;;;;8.10;99.90;;;;;;5067505;28;19932;-79
2023/12/22 00:54:31;;;;;;;;;;;8.10;99.90;;;;;;5066235;28;20390;-79
2023/12/22 00:56:58;;;;;;;;;;;8.10;99.90;;;;;;5061503;28;19929;-79
2023/12/22 00:59:26;;;;;;;;;;;8.10;99.90;;;;;;5066373;28;19946;-78
2023/12/22 01:01:52;;;;;;;;;;;8.10;99.90;;;;;;5064738;28;19932;-79
2023/12/22 01:04:19;;;;;;;;;;;8.10;99.90;;;;;;5067024;28;20326;-77
2023/12/22 01:06:45;;;;;;;;;;;8.00;99.90;;;;;;5063881;28;19924;-78
2023/12/22 01:09:12;;;;;;;;;;;8.00;99.90;;;;;;5067391;28;19924;-78
2023/12/22 01:11:38;;;;;;;;;;;8.00;99.90;;;;;;5066133;28;19931;-78
2023/12/22 01:14:06;;;;;;;;;;;8.00;99.90;;;;;;5063408;28;19924;-79
2023/12/22 01:16:34;;;;;;;;;;;8.00;99.90;;;;;;5062965;28;19997;-78
2023/12/22 01:19:01;;;;;;;;;;;8.00;99.90;;;;;;5063353;28;19928;-79
2023/12/22 01:21:27;;;;;;;;;;;8.00;99.90;;;;;;5068881;28;20301;-79
2023/12/22 01:23:54;;;;;;;;;;;8.00;99.90;;;;;;5067460;28;19938;-78
2023/12/22 01:26:20;;;;;;;;;;;7.90;99.90;;;;;;5068702;28;19932;-78
2023/12/22 01:28:47;;;;;;;;;;;7.90;99.90;;;;;;5066684;28;20897;-78
2023/12/22 01:31:14;;;;;;;;;;;7.90;99.90;;;;;;5066001;28;19928;-78
2023/12/22 01:33:42;;;;;;;;;;;7.90;99.90;;;;;;5068894;28;19928;-78
2023/12/22 01:36:08;;;;;;;;;;;7.90;99.90;;;;;;5065432;28;19947;-79
2023/12/22 01:38:35;;;;;;;;;;;7.90;99.90;;;;;;5067378;28;19928;-78
2023/12/22 01:41:01;;;;;;;;;;;7.90;99.90;;;;;;5065644;28;20456;-77
2023/12/22 01:43:28;;;;;;;;;;;7.90;99.90;;;;;;5064759;28;19920;-79
2023/12/22 01:45:56;;;;;;;;;;;7.90;99.90;;;;;;5065573;28;19977;-78
2023/12/22 01:48:23;;;;;;;;;;;7.90;99.90;;;;;;5063843;28;20231;-79
2023/12/22 01:50:52;;;;;;;;;;;7.90;99.90;;;;;;5064802;28;20015;-78
2023/12/22 01:53:20;;;;;;;;;;;7.90;99.90;;;;;;5064370;28;19931;-79
2023/12/22 01:55:47;;;;;;;;;;;7.90;99.90;;;;;;5066019;28;20009;-78
2023/12/22 01:58:13;;;;;;;;;;;7.90;99.90;;;;;;5067034;28;20623;-77
2023/12/22 02:00:40;;;;;;;;;;;7.90;99.90;;;;;;5060503;28;20038;-79
2023/12/22 02:03:07;;;;;;;;;;;7.90;99.90;;;;;;5063946;28;19925;-78
2023/12/22 02:05:33;;;;;;;;;;;7.90;99.90;;;;;;5066838;28;19950;-78
2023/12/22 02:08:01;;;;;;;;;;;7.90;99.90;;;;;;5065061;28;19928;-78
2023/12/22 02:10:28;;;;;;;;;;;7.90;99.90;;;;;;5071175;28;19947;-78
2023/12/22 02:12:55;;;;;;;;;;;7.90;99.90;;;;;;5069697;28;19939;-78
2023/12/22 02:15:21;;;;;;;;;;;7.90;99.90;;;;;;5061643;28;19931;-78
2023/12/22 02:17:49;;;;;;;;;;;7.90;99.90;;;;;;5068452;28;19924;-77
2023/12/22 02:20:17;;;;;;;;;;;7.90;99.90;;;;;;5067016;28;20023;-77
2023/12/22 02:22:45;;;;;;;;;;;7.90;99.90;;;;;;5063179;28;19924;-77
2023/12/22 02:25:11;;;;;;;;;;;7.90;99.90;;;;;;5066859;28;19924;-78
2023/12/22 02:27:40;;;;;;;;;;;7.90;99.90;;;;;;5070398;28;19931;-78
2023/12/22 02:30:09;;;;;;;;;;;7.80;99.90;;;;;;5060443;28;20042;-78
2023/12/22 02:32:41;;;;;;;;;;;7.80;99.90;;;;;;5064349;28;19947;-78
2023/12/22 02:35:09;;;;;;;;;;;7.90;99.90;;;;;;5062990;28;19924;-77
2023/12/22 02:37:36;;;;;;;;;;;7.90;99.90;;;;;;5065061;28;19924;-77
2023/12/22 02:40:05;;;;;;;;;;;7.80;99.90;;;;;;5067036;28;20065;-78
2023/12/22 02:42:33;;;;;;;;;;;7.90;99.90;;;;;;5062742;28;20066;-79
2023/12/22 02:44:59;;;;;;;;;;;7.90;99.90;;;;;;5063305;28;19928;-79
2023/12/22 02:47:27;;;;;;;;;;;7.90;99.90;;;;;;5062392;28;19995;-78
2023/12/22 02:49:54;;;;;;;;;;;7.90;99.90;;;;;;5064554;28;19928;-78
2023/12/22 02:52:20;;;;;;;;;;;7.90;99.90;;;;;;5062715;28;19947;-76
2023/12/22 02:54:47;;;;;;;;;;;7.90;99.90;;;;;;5065574;28;20341;-77
2023/12/22 02:57:15;;;;;;;;;;;7.90;99.90;;;;;;5061452;28;19990;-79
2023/12/22 02:59:42;;;;;;;;;;;7.90;99.90;;;;;;5065884;28;19923;-77
2023/12/22 03:02:08;;;;;;;;;;;7.90;99.90;;;;;;5064190;28;19928;-77
2023/12/22 03:04:35;;;;;;;;;;;7.80;99.90;;;;;;5068049;28;20392;-77
2023/12/22 03:07:01;;;;;;;;;;;7.80;99.90;;;;;;5063942;28;20488;-79
2023/12/22 03:09:28;;;;;;;;;;;7.80;99.90;;;;;;5065536;28;19928;-78
2023/12/22 03:11:57;;;;;;;;;;;7.90;99.90;;;;;;5066194;28;19924;-79
2023/12/22 03:14:24;;;;;;;;;;;7.80;99.90;;;;;;5062318;28;19928;-78
2023/12/22 03:16:51;;;;;;;;;;;7.90;99.90;;;;;;5065063;28;20053;-78
2023/12/22 03:19:17;;;;;;;;;;;7.90;99.90;;;;;;5070204;28;19924;-78
2023/12/22 03:21:44;;;;;;;;;;;7.80;99.90;;;;;;5066586;28;19985;-78
2023/12/22 03:24:11;;;;;;;;;;;7.90;99.90;;;;;;5070056;28;20597;-79
2023/12/22 03:26:36;;;;;;;;;;;7.90;99.90;;;;;;5065604;28;19929;-78
2023/12/22 03:29:03;;;;;;;;;;;7.90;99.90;;;;;;5068437;28;19928;-79
2023/12/22 03:31:30;;;;;;;;;;;7.90;99.90;;;;;;5064335;28;19931;-78
2023/12/22 03:33:57;;;;;;;;;;;7.90;99.90;;;;;;5065848;28;19924;-79
2023/12/22 03:36:24;;;;;;;;;;;7.90;99.90;;;;;;5068648;28;19932;-79
2023/12/22 03:38:50;;;;;;;;;;;7.90;99.90;;;;;;5066762;28;19935;-77
2023/12/22 03:41:17;;;;;;;;;;;7.90;99.90;;;;;;5066538;28;20270;-76
2023/12/22 03:43:43;;;;;;;;;;;7.90;99.90;;;;;;5066253;28;19924;-78
2023/12/22 03:46:10;;;;;;;;;;;7.90;99.90;;;;;;5064085;28;20645;-80
2023/12/22 03:48:38;;;;;;;;;;;7.90;99.90;;;;;;5064394;28;19932;-76
2023/12/22 03:51:04;;;;;;;;;;;7.90;99.90;;;;;;5064883;28;19928;-78
2023/12/22 03:53:31;;;;;;;;;;;7.90;99.90;;;;;;5063411;28;20339;-78
2023/12/22 03:55:57;;;;;;;;;;;7.90;99.90;;;;;;5065351;28;19924;-77
2023/12/22 03:58:25;;;;;;;;;;;7.90;99.90;;;;;;5075155;28;19924;-77
2023/12/22 04:00:52;;;;;;;;;;;7.90;99.90;;;;;;5065116;28;19940;-79
2023/12/22 04:03:19;;;;;;;;;;;7.90;99.90;;;;;;5065739;28;19924;-78
2023/12/22 04:05:47;;;;;;;;;;;7.90;99.90;;;;;;5066074;28;19928;-77
2023/12/22 04:08:13;;;;;;;;;;;7.80;99.90;;;;;;5066049;28;19924;-77
2023/12/22 04:10:40;;;;;;;;;;;7.80;99.90;;;;;;5070530;28;19932;-78
2023/12/22 04:13:06;;;;;;;;;;;7.80;99.90;;;;;;5069151;28;19947;-76
2023/12/22 04:15:33;;;;;;;;;;;7.80;99.90;;;;;;5062896;28;19924;-77
2023/12/22 04:17:59;;;;;;;;;;;7.80;99.90;;;;;;5066236;28;19936;-79
2023/12/22 04:20:26;;;;;;;;;;;7.80;99.90;;;;;;5068426;28;19939;-77
2023/12/22 04:22:54;;;;;;;;;;;7.80;99.90;;;;;;5064963;28;19925;-76
2023/12/22 04:25:22;;;;;;;;;;;7.80;99.90;;;;;;5071309;28;19925;-78
2023/12/22 04:27:49;;;;;;;;;;;7.70;99.90;;;;;;5063488;28;19925;-78
2023/12/22 04:30:15;;;;;;;;;;;7.70;99.90;;;;;;5064991;28;19964;-76
2023/12/22 04:32:42;;;;;;;;;;;7.70;99.90;;;;;;5067427;28;19995;-77
2023/12/22 04:35:08;;;;;;;;;;;7.70;99.90;;;;;;5069425;28;19931;-78
2023/12/22 04:37:35;;;;;;;;;;;7.70;99.90;;;;;;5065060;28;19935;-77
2023/12/22 04:40:03;;;;;;;;;;;7.60;99.90;;;;;;5068544;28;20403;-78
2023/12/22 04:42:30;;;;;;;;;;;7.60;99.90;;;;;;5064403;28;20297;-76
2023/12/22 04:44:56;;;;;;;;;;;7.60;99.90;;;;;;5068834;28;19924;-77
2023/12/22 04:47:23;;;;;;;;;;;7.60;99.90;;;;;;5066998;28;19936;-79
2023/12/22 04:49:49;;;;;;;;;;;7.60;99.90;;;;;;5068552;28;19924;-78
2023/12/22 04:52:16;;;;;;;;;;;7.60;99.90;;;;;;5065051;28;20044;-78
2023/12/22 04:54:42;;;;;;;;;;;7.60;99.90;;;;;;5067288;28;19947;-77
2023/12/22 04:57:10;;;;;;;;;;;7.60;99.90;;;;;;5068915;28;19925;-78
2023/12/22 04:59:37;;;;;;;;;;;7.60;99.90;;;;;;5063444;28;19931;-79
2023/12/22 05:02:03;;;;;;;;;;;7.50;99.90;;;;;;5059221;28;19928;-77
2023/12/22 05:04:30;;;;;;;;;;;7.60;99.90;;;;;;5068343;28;19959;-78
2023/12/22 05:06:57;;;;;;;;;;;7.50;99.90;;;;;;5064224;28;19928;-78
2023/12/22 05:09:24;;;;;;;;;;;7.50;99.90;;;;;;5070952;28;20014;-78
2023/12/22 05:11:51;;;;;;;;;;;7.50;99.90;;;;;;5067549;28;19932;-78
2023/12/22 05:14:19;;;;;;;;;;;7.50;99.90;;;;;;5066391;28;19931;-78
2023/12/22 05:16:46;;;;;;;;;;;7.50;99.90;;;;;;5063099;28;20026;-78
2023/12/22 05:19:12;;;;;;;;;;;7.50;99.90;;;;;;5072104;28;21397;-78
2023/12/22 05:21:39;;;;;;;;;;;7.60;99.90;;;;;;5065159;28;19931;-77
2023/12/22 05:24:05;;;;;;;;;;;7.50;99.90;;;;;;5061633;28;19990;-76
2023/12/22 05:26:32;;;;;;;;;;;7.50;99.90;;;;;;5063582;28;19975;-78
2023/12/22 05:28:59;;;;;;;;;;;7.50;99.90;;;;;;5062761;28;19936;-77
2023/12/22 05:31:27;;;;;;;;;;;7.50;99.90;;;;;;5064955;28;19931;-78
2023/12/22 05:33:54;;;;;;;;;;;7.50;99.90;;;;;;5064587;28;20625;-78
2023/12/22 05:36:21;;;;;;;;;;;7.50;99.90;;;;;;5062974;28;19924;-77
2023/12/22 05:38:48;;;;;;;;;;;7.50;99.90;;;;;;5063410;28;20688;-77
2023/12/22 05:41:14;;;;;;;;;;;7.60;99.90;;;;;;5061411;28;20086;-78
2023/12/22 05:43:41;;;;;;;;;;;7.60;99.90;;;;;;5062434;28;19925;-76
2023/12/22 05:46:09;;;;;;;;;;;7.50;99.90;;;;;;5062412;28;19935;-78
2023/12/22 05:48:37;;;;;;;;;;;7.60;99.90;;;;;;5065271;28;19999;-78
2023/12/22 05:51:07;;;;;;;;;;;7.50;99.90;;;;;;5063642;28;19929;-76
2023/12/22 05:53:33;;;;;;;;;;;7.60;99.90;;;;;;5061537;28;19991;-77
2023/12/22 05:56:00;;;;;;;;;;;7.60;99.90;;;;;;5066089;28;19928;-79
2023/12/22 05:58:26;;;;;;;;;;;7.60;99.90;;;;;;5067449;28;19925;-78
2023/12/22 06:00:53;;;;;;;;;;;7.60;99.90;;;;;;5058020;28;19936;-79
2023/12/22 06:03:19;;;;;;;;;;;7.60;99.90;;;;;;5060091;28;19924;-79
2023/12/22 06:05:48;;;;;;;;;;;7.60;99.90;;;;;;5063240;28;20058;-79
2023/12/22 06:08:14;;;;;;;;;;;7.60;99.90;;;;;;5067501;28;19959;-78
2023/12/22 06:10:41;;;;;;;;;;;7.60;99.90;;;;;;5070456;28;20498;-79
2023/12/22 06:13:07;;;;;;;;;;;7.60;99.90;;;;;;5068789;28;19924;-77
2023/12/22 06:15:34;;;;;;;;;;;7.60;99.90;;;;;;5061690;28;20473;-78
2023/12/22 06:18:01;;;;;;;;;;;7.60;99.90;;;;;;5063215;28;19931;-79
2023/12/22 06:20:27;;;;;;;;;;;7.60;99.90;;;;;;5065159;28;19935;-79
2023/12/22 06:22:55;;;;;;;;;;;7.60;99.90;;;;;;5061229;28;19936;-78
2023/12/22 06:25:21;;;;;;;;;;;7.70;99.90;;;;;;5064272;28;19931;-79
2023/12/22 06:27:48;;;;;;;;;;;7.60;99.90;;;;;;5061992;28;20400;-79
2023/12/22 06:30:15;;;;;;;;;;;7.60;99.90;;;;;;5062811;28;20386;-78
2023/12/22 06:32:41;;;;;;;;;;;7.60;99.90;;;;;;5061536;28;19920;-78
2023/12/22 06:35:09;;;;;;;;;;;7.60;99.90;;;;;;5068677;28;19924;-77
2023/12/22 06:37:36;;;;;;;;;;;7.60;99.90;;;;;;5067316;28;19928;-76
2023/12/22 06:40:04;;;;;;;;;;;7.60;99.90;;;;;;5065442;28;19939;-77
2023/12/22 06:42:31;;;;;;;;;;;7.60;99.90;;;;;;5066565;28;19921;-78
2023/12/22 06:44:57;;;;;;;;;;;7.70;99.90;;;;;;5069629;28;19932;-78
2023/12/22 06:47:25;;;;;;;;;;;7.60;99.90;;;;;;5067927;28;19946;-76
2023/12/22 06:49:52;;;;;;;;;;;7.70;99.90;;;;;;5067345;28;19928;-78
2023/12/22 06:52:19;;;;;;;;;;;7.70;99.90;;;;;;5067577;28;19924;-78
2023/12/22 06:54:45;;;;;;;;;;;7.70;99.90;;;;;;5071992;28;19924;-79
2023/12/22 06:57:13;;;;;;;;;;;7.60;99.90;;;;;;5067086;28;19932;-78
2023/12/22 06:59:40;;;;;;;;;;;7.70;99.90;;;;;;5065537;28;19924;-78
2023/12/22 07:02:07;;;;;;;;;;;7.70;99.90;;;;;;5063358;28;19924;-78
2023/12/22 07:04:33;;;;;;;;;;;7.70;99.90;;;;;;5066536;28;20016;-79
2023/12/22 07:07:00;;;;;;;;;;;7.70;99.90;;;;;;5063963;28;20386;-78
2023/12/22 07:09:32;;;;;;;;;;;7.70;99.90;;;;;;5065521;28;19931;-78
2023/12/22 07:11:59;;;;;;;;;;;7.70;99.90;;;;;;5063704;28;20768;-78
2023/12/22 07:14:29;;;;;;;;;;;7.70;99.90;;;;;;5063689;28;20200;-79
2023/12/22 07:16:57;;;;;;;;;;;7.70;99.90;;;;;;5063470;28;19936;-79
2023/12/22 07:19:24;;;;;;;;;;;7.70;99.90;;;;;;5064067;28;20428;-78
2023/12/22 07:21:51;;;;;;;;;;;7.70;99.90;;;;;;5065520;28;19932;-78
2023/12/22 07:24:18;;;;;;;;;;;7.70;99.90;;;;;;5065626;28;19932;-78
2023/12/22 07:26:45;;;;;;;;;;;7.70;99.90;;;;;;5064632;28;20016;-78
2023/12/22 07:29:11;;;;;;;;;;;7.70;99.90;;;;;;5065673;28;19932;-78
2023/12/22 07:31:39;;;;;;;;;;;7.70;99.90;;;;;;5066250;28;19932;-78
2023/12/22 07:34:06;;;;;;;;;;;7.70;99.90;;;;;;5067660;28;20016;-79
2023/12/22 07:36:32;;;;;;;;;;;7.80;99.90;;;;;;5064740;28;19948;-76
2023/12/22 07:39:00;;;;;;;;;;;7.70;99.90;;;;;;5066276;28;20020;-79
2023/12/22 07:41:27;;;;;;;;;;;7.70;99.90;;;;;;5062644;28;19932;-78
2023/12/22 07:43:53;;;;;;;;;;;7.80;99.90;;;;;;5064228;28;19933;-79
2023/12/22 07:46:20;;;;;;;;;;;7.70;99.90;;;;;;5062861;28;19928;-78
2023/12/22 07:48:48;;;;;;;;;;;7.70;99.90;;;;;;5061473;28;20648;-78
2023/12/22 07:51:15;;;;;;;;;;;7.70;99.90;;;;;;5067009;28;19939;-78
2023/12/22 07:53:41;;;;;;;;;;;7.70;99.90;;;;;;5063803;28;19932;-78
2023/12/22 07:56:10;;;;;;;;;;;7.80;99.90;;;;;;5064269;28;19940;-77
2023/12/22 07:58:37;;;;;;;;;;;7.80;99.90;;;;;;5063104;28;20447;-78
2023/12/22 08:01:05;;;;;;;;;;;7.70;99.90;;;;;;5063146;28;19932;-78
2023/12/22 08:03:31;;;;;;;;;;;7.80;99.90;;;;;;5057766;28;20339;-78
2023/12/22 08:05:59;;;;;;;;;;;7.70;99.90;;;;;;5066183;28;20007;-78
2023/12/22 08:08:26;;;;;;;;;;;7.70;99.90;;;;;;5065096;28;20364;-78
2023/12/22 08:10:52;;;;;;;;;;;7.70;99.90;;;;;;5064037;28;19943;-78
2023/12/22 08:13:19;;;;;;;;;;;7.70;99.90;;;;;;5064951;28;19932;-77
2023/12/22 08:15:46;;;;;;;;;;;7.70;99.90;;;;;;5062097;28;20386;-78
2023/12/22 08:18:12;;;;;;;;;;;7.70;99.90;;;;;;5066819;28;19928;-77
2023/12/22 08:20:39;;;;;;;;;;;7.70;99.90;;;;;;5063001;28;20390;-78
2023/12/22 08:23:06;;;;;;;;;;;7.70;99.90;;;;;;5062989;28;19936;-78
2023/12/22 08:25:33;;;;;;;;;;;7.70;99.90;;;;;;5067208;28;19935;-78
2023/12/22 08:28:01;;;;;;;;;;;7.70;99.90;;;;;;5064005;28;19932;-79
2023/12/22 08:30:27;;;;;;;;;;;7.70;99.90;;;;;;5061537;28;20435;-78
2023/12/22 08:32:54;;;;;;;;;;;7.70;99.90;;;;;;5059557;28;19932;-78
2023/12/22 08:35:21;;;;;;;;;;;7.60;99.90;;;;;;5062374;28;20062;-79
2023/12/22 08:37:47;;;;;;;;;;;7.60;99.90;;;;;;5062821;28;19943;-78
2023/12/22 08:40:15;;;;;;;;;;;7.70;99.90;;;;;;5065925;28;19928;-80
2023/12/22 08:42:42;;;;;;;;;;;7.60;99.90;;;;;;5066390;28;19955;-79
2023/12/22 08:45:09;;;;;;;;;;;7.60;99.90;;;;;;5063027;28;19929;-77
2023/12/22 08:47:35;;;;;;;;;;;7.60;99.90;;;;;;5063963;28;20448;-78
2023/12/22 08:50:04;;;;;;;;;;;7.60;99.90;;;;;;5063707;28;19935;-79
2023/12/22 08:52:30;;;;;;;;;;;7.60;99.90;;;;;;5059592;28;19936;-79
2023/12/22 08:54:57;;;;;;;;;;;7.60;99.90;;;;;;5066939;28;20314;-78
2023/12/22 08:57:25;;;;;;;;;;;7.60;99.90;;;;;;5064875;28;19937;-79
2023/12/22 08:59:52;;;;;;;;;;;7.60;99.90;;;;;;5065190;28;20030;-78
2023/12/22 09:02:19;;;;;;;;;;;7.60;99.90;;;;;;5066094;28;19937;-77
2023/12/22 09:04:45;;;;;;;;;;;7.60;99.90;;;;;;5062214;28;20031;-78
2023/12/22 09:07:12;;;;;;;;;;;7.60;99.90;;;;;;5065162;28;19943;-78
2023/12/22 09:09:40;;;;;;;;;;;7.60;99.90;;;;;;5063702;28;19939;-78
2023/12/22 09:12:06;;;;;;;;;;;7.60;99.90;;;;;;5061208;28;20032;-78
2023/12/22 09:14:35;;;;;;;;;;;7.60;99.90;;;;;;5062867;28;19989;-79
2023/12/22 09:17:01;;;;;;;;;;;7.50;99.90;;;;;;5062954;28;19989;-77
2023/12/22 09:19:28;;;;;;;;;;;7.60;99.90;;;;;;5063456;28;20330;-77
2023/12/22 09:21:54;;;;;;;;;;;7.60;99.90;;;;;;5062907;28;19937;-78
2023/12/22 09:24:21;;;;;;;;;;;7.50;99.90;;;;;;5062668;28;19924;-77
2023/12/22 09:26:47;;;;;;;;;;;7.50;99.90;;;;;;5064928;28;19946;-78
2023/12/22 09:29:14;;;;;;;;;;;7.50;99.90;;;;;;5060354;28;20361;-77
2023/12/22 09:31:42;;;;;;;;;;;7.60;99.90;;;;;;5062674;28;19928;-77
2023/12/22 09:34:08;;;;;;;;;;;7.50;99.90;;;;;;5062641;28;20471;-77
2023/12/22 09:36:35;;;;;;;;;;;7.50;99.90;;;;;;5063094;28;19936;-76
2023/12/22 09:39:02;;;;;;;;;;;7.60;99.90;;;;;;5060711;28;19928;-77
2023/12/22 09:41:29;;;;;;;;;;;7.50;99.90;;;;;;5063211;28;20568;-76
2023/12/22 09:43:56;;;;;;;;;;;7.60;99.90;;;;;;5063664;28;20366;-77
2023/12/22 09:46:26;;;;;;;;;;;7.50;99.90;;;;;;5061620;28;19957;-77
2023/12/22 09:48:54;;;;;;;;;;;7.50;99.90;;;;;;5061247;28;20413;-76
2023/12/22 09:51:21;;;;;;;;;;;7.50;99.90;;;;;;5064786;28;19928;-79
2023/12/22 09:53:48;;;;;;;;;;;7.60;99.90;;;;;;5059688;28;19929;-78
2023/12/22 09:56:15;;;;;;;;;;;7.50;99.90;;;;;;5063386;28;19955;-77
2023/12/22 09:58:42;;;;;;;;;;;7.50;99.90;;;;;;5060025;28;19932;-77
2023/12/22 10:01:09;;;;;;;;;;;7.50;99.90;;;;;;5062167;28;19939;-66
2023/12/22 10:03:37;;;;;;;;;;;7.60;99.90;;;;;;5062381;28;19936;-67
2023/12/22 10:06:05;;;;;;;;;;;7.60;99.90;;;;;;5068029;28;19933;-66
2023/12/22 10:08:33;;;;;;;;;;;7.60;99.90;;;;;;5063555;28;19928;-66
2023/12/22 10:11:00;;;;;;;;;;;7.60;99.90;;;;;;5065105;28;21307;-65
2023/12/22 10:13:28;;;;;;;;;;;7.60;99.90;;;;;;5062787;28;19928;-66
2023/12/22 10:15:55;;;;;;;;;;;7.60;99.90;;;;;;5062905;28;19928;-66
2023/12/22 10:18:22;;;;;;;;;;;7.60;99.90;;;;;;5064444;28;19967;-66
2023/12/22 10:20:48;;;;;;;;;;;7.60;99.90;;;;;;5060529;28;19932;-66
2023/12/22 10:23:16;;;;;;;;;;;7.60;99.90;;;;;;5064991;28;19931;-65
2023/12/22 10:25:43;;;;;;;;;;;7.60;99.90;;;;;;5062039;28;20687;-66
2023/12/22 10:28:11;;;;;;;;;;;7.60;99.90;;;;;;5063337;28;20052;-67
2023/12/22 10:30:38;;;;;;;;;;;7.60;99.90;;;;;;5057741;28;19936;-66
2023/12/22 10:33:04;;;;;;;;;;;7.60;99.90;;;;;;5063092;28;19925;-66
2023/12/22 10:35:31;;;;;;;;;;;7.60;99.90;;;;;;5066526;28;20409;-65
2023/12/22 10:37:59;;;;;;;;;;;7.60;99.90;;;;;;5061462;28;19932;-67
2023/12/22 10:40:27;;;;;;;;;;;7.60;99.90;;;;;;5066852;28;19932;-67
2023/12/22 10:42:54;;;;;;;;;;;7.70;99.90;;;;;;5063056;28;19929;-66
2023/12/22 10:45:20;;;;;;;;;;;7.70;99.90;;;;;;5063675;28;19949;-66
2023/12/22 10:47:50;;;;;;;;;;;7.70;99.90;;;;;;5061139;28;19936;-66
2023/12/22 10:50:19;;;;;;;;;;;7.70;99.90;;;;;;5065063;28;19950;-66
2023/12/22 10:52:49;;;;;;;;;;;7.70;99.90;;;;;;5063819;28;19928;-67
2023/12/22 10:55:16;;;;;;;;;;;7.70;99.90;;;;;;5062378;28;19933;-66
2023/12/22 10:57:45;;;;;;;;;;;7.70;99.90;;;;;;5061585;28;19935;-66
2023/12/22 11:00:16;;;;;;;;;;;7.70;99.90;;;;;;5062979;28;19928;-66
2023/12/22 11:02:43;;;;;;;;;;;7.70;99.90;;;;;;5063792;28;20451;-66
2023/12/22 11:05:11;;;;;;;;;;;7.70;99.90;;;;;;5056767;28;20314;-67
2023/12/22 11:07:38;;;;;;;;;;;7.70;99.90;;;;;;5060776;28;19928;-67
2023/12/22 11:10:06;;;;;;;;;;;7.80;99.90;;;;;;5064417;28;19940;-66
2023/12/22 11:12:34;;;;;;;;;;;7.80;99.90;;;;;;5062779;28;19933;-65
2023/12/22 11:15:03;;;;;;;;;;;7.70;99.90;;;;;;5063667;28;19935;-67
2023/12/22 11:17:31;;;;;;;;;;;7.80;99.90;;;;;;5061671;28;19964;-66
2023/12/22 11:19:58;;;;;;;;;;;7.70;99.90;;;;;;5062266;28;19997;-66
2023/12/22 11:22:25;;;;;;;;;;;7.80;99.90;;;;;;5065130;28;19935;-66
2023/12/22 11:24:51;;;;;;;;;;;7.80;99.90;;;;;;5064529;28;19940;-66
2023/12/22 11:27:19;;;;;;;;;;;7.80;99.90;;;;;;5066241;28;19928;-78
2023/12/22 11:29:47;;;;;;;;;;;7.80;99.90;;;;;;5064836;28;19929;-78
2023/12/22 11:32:16;;;;;;;;;;;8.10;99.90;;;;;;5070249;28;19952;-78
2023/12/22 11:34:43;;;;;;;;;;;7.80;99.90;;;;;;5067854;28;20393;-77
2023/12/22 11:37:10;;;;;;;;;;;7.80;99.90;;;;;;5066166;28;19928;-78
2023/12/22 11:39:37;;;;;;;;;;;7.70;99.90;;;;;;5065300;28;19940;-78
2023/12/22 11:42:05;;;;;;;;;;;7.80;99.90;;;;;;5069323;28;19929;-78
2023/12/22 11:44:31;;;;;;;;;;;7.80;99.90;;;;;;5070170;28;19935;-78
2023/12/22 11:47:03;;;;;;;;;;;7.80;99.90;;;;;;5066354;28;19966;-78
2023/12/22 11:49:34;;;;;;;;;;;7.80;99.90;;;;;;5068720;28;19928;-78
2023/12/22 11:52:09;;;;;;;;;;;7.80;99.90;;;;;;5065968;28;19964;-78
2023/12/22 11:54:46;;;;;;;;;;;7.70;99.90;;;;;;5064635;28;19932;-77
2023/12/22 11:57:35;;;;;;;;;;;7.70;99.90;;;;;;5065172;28;19928;-77
2023/12/22 12:00:03;;;;;;;;;;;7.80;99.90;;;;;;5065469;28;19932;-79
2023/12/22 12:02:30;;;;;;;;;;;7.70;99.90;;;;;;5067694;28;20224;-78
2023/12/22 12:05:00;;;;;;;;;;;7.80;99.90;;;;;;5060868;28;19936;-79
2023/12/22 12:07:39;;;;;;;;;;;7.80;99.90;;;;;;5063505;28;19960;-80
2023/12/22 12:10:06;;;;;;;;;;;7.70;99.90;;;;;;5063564;28;19967;-80
2023/12/22 12:12:34;;;;;;;;;;;7.80;99.90;;;;;;5068199;28;19936;-79
2023/12/22 12:15:07;;;;;;;;;;;7.70;99.90;;;;;;5070120;28;19936;-76
2023/12/22 12:17:34;;;;;;;;;;;7.80;99.90;;;;;;5068481;28;19959;-79
2023/12/22 12:20:02;;;;;;;;;;;7.80;99.90;;;;;;5064028;28;20320;-80
2023/12/22 12:22:30;;;;;;;;;;;7.80;99.90;;;;;;5063804;28;19975;-78
2023/12/22 12:24:57;;;;;;;;;;;7.80;99.90;;;;;;5063421;28;19933;-79
2023/12/22 12:27:23;;;;;;;;;;;7.80;99.90;;;;;;5070415;28;19932;-80
2023/12/22 12:29:50;;;;;;;;;;;7.80;99.90;;;;;;5064482;28;19937;-80
2023/12/22 12:32:17;;;;;;;;;;;7.80;99.90;;;;;;5067935;28;19939;-79
2023/12/22 12:34:43;;;;;;;;;;;7.80;99.90;;;;;;5068650;28;19929;-79
2023/12/22 12:37:11;;;;;;;;;;;7.80;99.90;;;;;;5067661;28;19928;-79
2023/12/22 12:39:40;;;;;;;;;;;7.80;99.90;;;;;;5055331;28;19932;-79
2023/12/22 12:42:08;;;;;;;;;;;7.80;99.90;;;;;;5064733;28;19940;-78
2023/12/22 12:44:35;;;;;;;;;;;7.80;99.90;;;;;;5068816;28;20398;-82
2023/12/22 12:47:12;;;;;;;;;;;7.80;99.90;;;;;;5067885;28;20007;-77
2023/12/22 12:49:38;;;;;;;;;;;7.80;99.90;;;;;;5068930;28;20401;-81
2023/12/22 12:52:05;;;;;;;;;;;7.80;99.90;;;;;;5072233;28;19932;-78
2023/12/22 12:54:34;;;;;;;;;;;7.80;99.90;;;;;;5067566;28;19940;-80
2023/12/22 12:57:00;;;;;;;;;;;7.80;99.90;;;;;;5072124;28;19940;-82
2023/12/22 12:59:27;;;;;;;;;;;7.80;99.90;;;;;;5072854;28;19935;-80
2023/12/22 13:01:53;;;;;;;;;;;7.80;99.90;;;;;;5067599;28;19928;-81
2023/12/22 13:04:20;;;;;;;;;;;7.80;99.90;;;;;;5069810;28;19999;-80
2023/12/22 13:06:47;;;;;;;;;;;7.90;99.90;;;;;;5071917;28;20012;-78
2023/12/22 13:09:14;;;;;;;;;;;7.90;99.90;;;;;;5072571;28;19966;-79
2023/12/22 13:11:43;;;;;;;;;;;7.90;99.90;;;;;;5065147;28;19928;-79
2023/12/22 13:14:09;;;;;;;;;;;7.90;99.90;;;;;;5064720;28;19925;-80
2023/12/22 13:16:36;;;;;;;;;;;7.90;99.90;;;;;;5069447;28;20447;-80
2023/12/22 13:19:03;;;;;;;;;;;7.90;99.90;;;;;;5068492;28;19936;-80
2023/12/22 13:21:29;;;;;;;;;;;7.90;99.90;;;;;;5068146;28;19962;-79
2023/12/22 13:24:12;;;;;;;;;;;7.90;99.90;;;;;;5071204;28;19928;-81
2023/12/22 13:26:39;;;;;;;;;;;7.90;99.90;;;;;;5068981;28;19992;-76
2023/12/22 13:29:07;;;;;;;;;;;7.90;99.90;;;;;;5069176;28;21567;-80
2023/12/22 13:31:33;;;;;;;;;;;7.90;99.90;;;;;;5064574;28;19932;-78
2023/12/22 13:34:00;;;;;;;;;;;8.00;99.90;;;;;;5067261;28;19933;-79
2023/12/22 13:36:27;;;;;;;;;;;7.90;99.90;;;;;;5066834;28;19929;-79
2023/12/22 13:38:53;;;;;;;;;;;8.00;99.90;;;;;;5062637;28;19929;-78
2023/12/22 13:41:20;;;;;;;;;;;8.00;99.90;;;;;;5066980;28;19955;-78
2023/12/22 13:43:46;;;;;;;;;;;8.00;99.90;;;;;;5068641;28;19935;-77
2023/12/22 13:46:15;;;;;;;;;;;8.00;99.90;;;;;;5067282;28;19932;-78
2023/12/22 13:48:41;;;;;;;;;;;8.00;99.90;;;;;;5064155;28;19928;-78
2023/12/22 13:51:08;;;;;;;;;;;8.00;99.90;;;;;;5061859;28;19928;-78
2023/12/22 13:53:36;;;;;;;;;;;8.00;99.90;;;;;;5056010;28;19928;-79
2023/12/22 13:56:02;;;;;;;;;;;8.00;99.90;;;;;;5066936;28;20431;-76
2023/12/22 13:58:29;;;;;;;;;;;8.00;99.90;;;;;;5067674;28;19935;-77
2023/12/22 14:00:57;;;;;;;;;;;8.00;99.90;;;;;;5065017;28;19929;-79
2023/12/22 14:03:25;;;;;;;;;;;8.10;99.90;;;;;;5069193;28;20990;-78
2023/12/22 14:05:53;;;;;;;;;;;8.10;99.90;;;;;;5067521;28;20011;-78
2023/12/22 14:08:19;;;;;;;;;;;8.10;99.90;;;;;;5067341;28;20315;-78
2023/12/22 14:10:47;;;;;;;;;;;8.10;99.90;;;;;;5066987;28;19928;-78
2023/12/22 14:13:13;;;;;;;;;;;8.10;99.90;;;;;;5071868;28;19990;-78
2023/12/22 14:15:40;;;;;;;;;;;8.10;99.90;;;;;;5069047;28;20306;-75
2023/12/22 14:18:06;;;;;;;;;;;8.10;99.90;;;;;;5069415;28;19937;-78
2023/12/22 14:20:34;;;;;;;;;;;8.10;99.90;;;;;;5066483;28;19928;-77
2023/12/22 14:23:01;;;;;;;;;;;8.10;99.90;;;;;;5065325;28;19935;-80
2023/12/22 14:25:27;;;;;;;;;;;8.20;99.90;;;;;;5065845;28;19935;-79
2023/12/22 14:27:57;;;;;;;;;;;8.20;99.90;;;;;;5068619;28;19989;-79
2023/12/22 14:30:23;;;;;;;;;;;8.20;99.90;;;;;;5066181;28;19939;-81